sensor_id;sensor_type;location;lat;lon;timestamp;P1;durP1;ratioP1;P2;durP2;ratioP2
4232;SDS011;2130;48.472;11.934;2022-12-29T00:01:26;3.30;;;1.50;;
4232;SDS011;2130;48.472;11.934;2022-12-29T00:03:55;3.73;;;1.47;;
4232;SDS011;2130;48.472;11.934;2022-12-29T00:06:24;2.80;;;1.40;;
4232;SDS011;2130;48.472;11.934;2022-12-29T00:08:53;3.07;;;1.43;;
4232;SDS011;2130;48.472;11.934;2022-12-29T00:11:23;2.90;;;1.20;;
4232;SDS011;2130;48.472;11.934;2022-12-29T00:13:55;2.50;;;1.37;;
4232;SDS011;2130;48.472;11.934;2022-12-29T00:16:46;2.80;;;1.60;;
4232;SDS011;2130;48.472;11.934;2022-12-29T00:19:17;2.40;;;1.20;;
4232;SDS011;2130;48.472;11.934;2022-12-29T00:22:11;2.93;;;1.30;;
4232;SDS011;2130;48.472;11.934;2022-12-29T00:25:13;3.30;;;1.47;;
4232;SDS011;2130;48.472;11.934;2022-12-29T00:28:00;2.90;;;1.13;;
4232;SDS011;2130;48.472;11.934;2022-12-29T00:30:48;2.70;;;1.30;;
4232;SDS011;2130;48.472;11.934;2022-12-29T00:33:35;3.83;;;1.87;;
4232;SDS011;2130;48.472;11.934;2022-12-29T00:36:23;4.70;;;1.80;;
4232;SDS011;2130;48.472;11.934;2022-12-29T00:38:55;2.37;;;1.27;;
4232;SDS011;2130;48.472;11.934;2022-12-29T00:41:44;2.90;;;1.40;;
4232;SDS011;2130;48.472;11.934;2022-12-29T00:44:30;5.13;;;1.57;;
4232;SDS011;2130;48.472;11.934;2022-12-29T00:47:01;3.43;;;1.30;;
4232;SDS011;2130;48.472;11.934;2022-12-29T00:49:32;5.43;;;2.00;;
4232;SDS011;2130;48.472;11.934;2022-12-29T00:52:01;5.07;;;1.90;;
4232;SDS011;2130;48.472;11.934;2022-12-29T00:54:32;4.20;;;1.57;;
4232;SDS011;2130;48.472;11.934;2022-12-29T00:57:02;2.73;;;1.40;;
4232;SDS011;2130;48.472;11.934;2022-12-29T00:59:32;3.70;;;1.50;;
4232;SDS011;2130;48.472;11.934;2022-12-29T01:02:05;3.57;;;1.40;;
4232;SDS011;2130;48.472;11.934;2022-12-29T01:04:34;3.20;;;1.10;;
4232;SDS011;2130;48.472;11.934;2022-12-29T01:07:03;3.77;;;2.00;;
4232;SDS011;2130;48.472;11.934;2022-12-29T01:09:33;3.00;;;1.10;;
4232;SDS011;2130;48.472;11.934;2022-12-29T01:12:19;2.60;;;1.30;;
4232;SDS011;2130;48.472;11.934;2022-12-29T01:15:12;3.10;;;1.50;;
4232;SDS011;2130;48.472;11.934;2022-12-29T01:17:46;2.83;;;1.37;;
4232;SDS011;2130;48.472;11.934;2022-12-29T01:20:15;2.60;;;1.40;;
4232;SDS011;2130;48.472;11.934;2022-12-29T01:22:45;2.20;;;0.90;;
4232;SDS011;2130;48.472;11.934;2022-12-29T01:25:14;2.97;;;1.43;;
4232;SDS011;2130;48.472;11.934;2022-12-29T01:27:44;4.73;;;1.37;;
4232;SDS011;2130;48.472;11.934;2022-12-29T01:30:13;3.47;;;1.40;;
4232;SDS011;2130;48.472;11.934;2022-12-29T01:32:48;2.13;;;1.00;;
4232;SDS011;2130;48.472;11.934;2022-12-29T01:35:18;3.83;;;1.80;;
4232;SDS011;2130;48.472;11.934;2022-12-29T01:37:47;2.80;;;1.20;;
4232;SDS011;2130;48.472;11.934;2022-12-29T01:40:17;3.57;;;1.60;;
4232;SDS011;2130;48.472;11.934;2022-12-29T01:42:46;3.60;;;1.27;;
4232;SDS011;2130;48.472;11.934;2022-12-29T01:45:15;3.00;;;1.40;;
4232;SDS011;2130;48.472;11.934;2022-12-29T01:47:45;4.63;;;1.63;;
4232;SDS011;2130;48.472;11.934;2022-12-29T01:50:19;2.60;;;1.30;;
4232;SDS011;2130;48.472;11.934;2022-12-29T01:52:52;2.70;;;1.30;;
4232;SDS011;2130;48.472;11.934;2022-12-29T01:55:28;3.67;;;1.37;;
4232;SDS011;2130;48.472;11.934;2022-12-29T01:57:59;4.20;;;1.67;;
4232;SDS011;2130;48.472;11.934;2022-12-29T02:03:26;3.73;;;1.70;;
4232;SDS011;2130;48.472;11.934;2022-12-29T02:06:00;4.67;;;2.00;;
4232;SDS011;2130;48.472;11.934;2022-12-29T02:08:31;2.60;;;1.13;;
4232;SDS011;2130;48.472;11.934;2022-12-29T02:11:00;3.43;;;1.13;;
4232;SDS011;2130;48.472;11.934;2022-12-29T02:13:33;2.33;;;1.03;;
4232;SDS011;2130;48.472;11.934;2022-12-29T02:16:04;4.73;;;1.33;;
4232;SDS011;2130;48.472;11.934;2022-12-29T02:18:46;3.97;;;1.63;;
4232;SDS011;2130;48.472;11.934;2022-12-29T02:27:29;4.30;;;1.40;;
4232;SDS011;2130;48.472;11.934;2022-12-29T02:30:13;3.60;;;1.50;;
4232;SDS011;2130;48.472;11.934;2022-12-29T02:32:48;5.03;;;1.40;;
4232;SDS011;2130;48.472;11.934;2022-12-29T02:35:24;2.80;;;1.10;;
4232;SDS011;2130;48.472;11.934;2022-12-29T02:38:00;4.23;;;1.60;;
4232;SDS011;2130;48.472;11.934;2022-12-29T02:40:37;3.00;;;1.33;;
4232;SDS011;2130;48.472;11.934;2022-12-29T02:43:13;4.13;;;1.50;;
4232;SDS011;2130;48.472;11.934;2022-12-29T02:45:49;3.23;;;1.47;;
4232;SDS011;2130;48.472;11.934;2022-12-29T02:48:37;5.73;;;1.50;;
4232;SDS011;2130;48.472;11.934;2022-12-29T02:51:07;3.10;;;1.30;;
4232;SDS011;2130;48.472;11.934;2022-12-29T02:53:38;3.73;;;1.37;;
4232;SDS011;2130;48.472;11.934;2022-12-29T02:56:25;3.33;;;1.40;;
4232;SDS011;2130;48.472;11.934;2022-12-29T02:58:55;3.53;;;1.13;;
4232;SDS011;2130;48.472;11.934;2022-12-29T03:01:27;4.00;;;1.30;;
4232;SDS011;2130;48.472;11.934;2022-12-29T03:04:12;3.97;;;1.30;;
4232;SDS011;2130;48.472;11.934;2022-12-29T03:06:52;3.00;;;1.40;;
4232;SDS011;2130;48.472;11.934;2022-12-29T03:09:26;3.03;;;1.20;;
4232;SDS011;2130;48.472;11.934;2022-12-29T03:12:01;2.80;;;1.13;;
4232;SDS011;2130;48.472;11.934;2022-12-29T03:14:48;2.60;;;1.17;;
4232;SDS011;2130;48.472;11.934;2022-12-29T03:17:45;3.10;;;1.30;;
4232;SDS011;2130;48.472;11.934;2022-12-29T03:20:19;3.70;;;1.30;;
4232;SDS011;2130;48.472;11.934;2022-12-29T03:22:55;4.80;;;1.33;;
4232;SDS011;2130;48.472;11.934;2022-12-29T03:25:30;2.60;;;0.80;;
4232;SDS011;2130;48.472;11.934;2022-12-29T03:28:05;3.00;;;0.80;;
4232;SDS011;2130;48.472;11.934;2022-12-29T03:30:41;2.90;;;0.87;;
4232;SDS011;2130;48.472;11.934;2022-12-29T03:33:14;2.83;;;1.07;;
4232;SDS011;2130;48.472;11.934;2022-12-29T03:35:48;3.13;;;1.00;;
4232;SDS011;2130;48.472;11.934;2022-12-29T03:38:22;2.90;;;1.00;;
4232;SDS011;2130;48.472;11.934;2022-12-29T03:40:55;2.10;;;0.87;;
4232;SDS011;2130;48.472;11.934;2022-12-29T03:43:27;2.30;;;1.10;;
4232;SDS011;2130;48.472;11.934;2022-12-29T03:45:57;2.07;;;1.00;;
4232;SDS011;2130;48.472;11.934;2022-12-29T03:48:27;1.87;;;0.80;;
4232;SDS011;2130;48.472;11.934;2022-12-29T03:50:57;1.87;;;0.80;;
4232;SDS011;2130;48.472;11.934;2022-12-29T03:53:27;2.30;;;0.63;;
4232;SDS011;2130;48.472;11.934;2022-12-29T03:55:57;2.53;;;0.77;;
4232;SDS011;2130;48.472;11.934;2022-12-29T03:58:26;1.63;;;0.80;;
4232;SDS011;2130;48.472;11.934;2022-12-29T04:01:08;3.33;;;0.73;;
4232;SDS011;2130;48.472;11.934;2022-12-29T04:03:38;2.07;;;0.90;;
4232;SDS011;2130;48.472;11.934;2022-12-29T04:06:10;2.30;;;0.87;;
4232;SDS011;2130;48.472;11.934;2022-12-29T04:08:46;2.40;;;0.80;;
4232;SDS011;2130;48.472;11.934;2022-12-29T04:11:15;2.20;;;0.80;;
4232;SDS011;2130;48.472;11.934;2022-12-29T04:13:45;2.00;;;0.90;;
4232;SDS011;2130;48.472;11.934;2022-12-29T04:16:18;1.57;;;0.87;;
4232;SDS011;2130;48.472;11.934;2022-12-29T04:18:47;1.43;;;0.80;;
4232;SDS011;2130;48.472;11.934;2022-12-29T04:21:18;1.27;;;0.80;;
4232;SDS011;2130;48.472;11.934;2022-12-29T04:23:47;2.00;;;0.80;;
4232;SDS011;2130;48.472;11.934;2022-12-29T04:26:16;2.83;;;1.00;;
4232;SDS011;2130;48.472;11.934;2022-12-29T04:29:07;1.40;;;0.70;;
4232;SDS011;2130;48.472;11.934;2022-12-29T04:31:45;2.00;;;0.80;;
4232;SDS011;2130;48.472;11.934;2022-12-29T04:34:13;2.03;;;0.80;;
4232;SDS011;2130;48.472;11.934;2022-12-29T04:36:47;1.30;;;0.80;;
4232;SDS011;2130;48.472;11.934;2022-12-29T04:39:17;1.43;;;0.70;;
4232;SDS011;2130;48.472;11.934;2022-12-29T04:41:46;1.13;;;0.60;;
4232;SDS011;2130;48.472;11.934;2022-12-29T04:44:18;1.97;;;0.90;;
4232;SDS011;2130;48.472;11.934;2022-12-29T04:47:11;2.30;;;0.70;;
4232;SDS011;2130;48.472;11.934;2022-12-29T04:49:50;1.60;;;0.93;;
4232;SDS011;2130;48.472;11.934;2022-12-29T04:52:41;1.83;;;0.80;;
4232;SDS011;2130;48.472;11.934;2022-12-29T04:55:12;2.00;;;0.80;;
4232;SDS011;2130;48.472;11.934;2022-12-29T04:57:41;1.10;;;0.67;;
4232;SDS011;2130;48.472;11.934;2022-12-29T05:00:16;1.13;;;0.60;;
4232;SDS011;2130;48.472;11.934;2022-12-29T05:02:45;2.50;;;0.87;;
4232;SDS011;2130;48.472;11.934;2022-12-29T05:05:14;1.57;;;0.90;;
4232;SDS011;2130;48.472;11.934;2022-12-29T05:10:44;1.30;;;0.80;;
4232;SDS011;2130;48.472;11.934;2022-12-29T05:13:14;1.20;;;0.73;;
4232;SDS011;2130;48.472;11.934;2022-12-29T05:15:47;2.83;;;0.80;;
4232;SDS011;2130;48.472;11.934;2022-12-29T05:18:16;1.40;;;0.83;;
4232;SDS011;2130;48.472;11.934;2022-12-29T05:20:46;1.37;;;0.77;;
4232;SDS011;2130;48.472;11.934;2022-12-29T05:23:16;1.33;;;0.80;;
4232;SDS011;2130;48.472;11.934;2022-12-29T05:25:51;1.57;;;0.90;;
4232;SDS011;2130;48.472;11.934;2022-12-29T05:28:46;1.67;;;0.90;;
4232;SDS011;2130;48.472;11.934;2022-12-29T05:31:18;1.70;;;0.90;;
4232;SDS011;2130;48.472;11.934;2022-12-29T05:33:47;1.90;;;0.80;;
4232;SDS011;2130;48.472;11.934;2022-12-29T05:36:17;1.17;;;0.90;;
4232;SDS011;2130;48.472;11.934;2022-12-29T05:38:51;1.20;;;0.80;;
4232;SDS011;2130;48.472;11.934;2022-12-29T05:41:20;1.77;;;0.80;;
4232;SDS011;2130;48.472;11.934;2022-12-29T05:47:13;2.10;;;0.87;;
4232;SDS011;2130;48.472;11.934;2022-12-29T05:49:48;1.40;;;0.80;;
4232;SDS011;2130;48.472;11.934;2022-12-29T05:52:38;1.43;;;0.70;;
4232;SDS011;2130;48.472;11.934;2022-12-29T05:55:09;1.77;;;0.80;;
4232;SDS011;2130;48.472;11.934;2022-12-29T05:57:40;1.43;;;0.90;;
4232;SDS011;2130;48.472;11.934;2022-12-29T06:00:12;2.10;;;0.80;;
4232;SDS011;2130;48.472;11.934;2022-12-29T06:02:44;1.20;;;0.80;;
4232;SDS011;2130;48.472;11.934;2022-12-29T06:05:15;1.17;;;0.77;;
4232;SDS011;2130;48.472;11.934;2022-12-29T06:07:44;1.47;;;0.97;;
4232;SDS011;2130;48.472;11.934;2022-12-29T06:10:17;2.03;;;0.90;;
4232;SDS011;2130;48.472;11.934;2022-12-29T06:13:47;1.87;;;0.93;;
4232;SDS011;2130;48.472;11.934;2022-12-29T06:16:16;2.90;;;1.30;;
4232;SDS011;2130;48.472;11.934;2022-12-29T06:18:45;2.30;;;0.97;;
4232;SDS011;2130;48.472;11.934;2022-12-29T06:21:15;1.43;;;1.00;;
4232;SDS011;2130;48.472;11.934;2022-12-29T06:23:45;2.90;;;0.83;;
4232;SDS011;2130;48.472;11.934;2022-12-29T06:26:15;2.37;;;1.27;;
4232;SDS011;2130;48.472;11.934;2022-12-29T06:28:45;1.23;;;0.87;;
4232;SDS011;2130;48.472;11.934;2022-12-29T06:31:15;3.23;;;1.23;;
4232;SDS011;2130;48.472;11.934;2022-12-29T06:33:45;2.33;;;1.27;;
4232;SDS011;2130;48.472;11.934;2022-12-29T06:36:16;2.40;;;1.30;;
4232;SDS011;2130;48.472;11.934;2022-12-29T06:38:45;6.37;;;1.50;;
4232;SDS011;2130;48.472;11.934;2022-12-29T06:41:15;1.27;;;0.80;;
4232;SDS011;2130;48.472;11.934;2022-12-29T06:44:16;3.13;;;1.17;;
4232;SDS011;2130;48.472;11.934;2022-12-29T06:46:59;1.47;;;1.10;;
4232;SDS011;2130;48.472;11.934;2022-12-29T06:49:28;1.83;;;0.90;;
4232;SDS011;2130;48.472;11.934;2022-12-29T06:51:57;1.63;;;1.10;;
4232;SDS011;2130;48.472;11.934;2022-12-29T06:54:27;2.03;;;1.40;;
4232;SDS011;2130;48.472;11.934;2022-12-29T06:56:57;2.80;;;1.23;;
4232;SDS011;2130;48.472;11.934;2022-12-29T06:59:26;1.53;;;1.10;;
4232;SDS011;2130;48.472;11.934;2022-12-29T07:01:55;1.60;;;1.00;;
4232;SDS011;2130;48.472;11.934;2022-12-29T07:04:24;1.60;;;1.27;;
4232;SDS011;2130;48.472;11.934;2022-12-29T07:06:54;1.30;;;0.90;;
4232;SDS011;2130;48.472;11.934;2022-12-29T07:09:23;1.37;;;1.00;;
4232;SDS011;2130;48.472;11.934;2022-12-29T07:11:52;1.43;;;1.07;;
4232;SDS011;2130;48.472;11.934;2022-12-29T07:14:22;1.10;;;0.73;;
4232;SDS011;2130;48.472;11.934;2022-12-29T07:16:52;3.90;;;1.20;;
4232;SDS011;2130;48.472;11.934;2022-12-29T07:19:21;1.80;;;0.80;;
4232;SDS011;2130;48.472;11.934;2022-12-29T07:21:50;3.83;;;1.00;;
4232;SDS011;2130;48.472;11.934;2022-12-29T07:24:19;1.83;;;0.90;;
4232;SDS011;2130;48.472;11.934;2022-12-29T07:26:49;1.77;;;1.30;;
4232;SDS011;2130;48.472;11.934;2022-12-29T07:29:18;1.30;;;0.90;;
4232;SDS011;2130;48.472;11.934;2022-12-29T07:31:48;1.93;;;0.80;;
4232;SDS011;2130;48.472;11.934;2022-12-29T07:34:18;1.27;;;0.70;;
4232;SDS011;2130;48.472;11.934;2022-12-29T07:36:50;3.57;;;1.60;;
4232;SDS011;2130;48.472;11.934;2022-12-29T07:39:19;2.60;;;1.73;;
4232;SDS011;2130;48.472;11.934;2022-12-29T07:41:48;1.37;;;1.07;;
4232;SDS011;2130;48.472;11.934;2022-12-29T07:44:18;1.00;;;0.70;;
4232;SDS011;2130;48.472;11.934;2022-12-29T07:47:09;1.40;;;0.80;;
4232;SDS011;2130;48.472;11.934;2022-12-29T07:49:39;2.20;;;0.77;;
4232;SDS011;2130;48.472;11.934;2022-12-29T07:52:08;1.43;;;0.90;;
4232;SDS011;2130;48.472;11.934;2022-12-29T07:54:36;1.37;;;0.70;;
4232;SDS011;2130;48.472;11.934;2022-12-29T07:57:05;0.80;;;0.70;;
4232;SDS011;2130;48.472;11.934;2022-12-29T07:59:33;0.90;;;0.70;;
4232;SDS011;2130;48.472;11.934;2022-12-29T08:02:02;0.80;;;0.60;;
4232;SDS011;2130;48.472;11.934;2022-12-29T08:04:32;0.80;;;0.60;;
4232;SDS011;2130;48.472;11.934;2022-12-29T08:07:02;1.00;;;0.70;;
4232;SDS011;2130;48.472;11.934;2022-12-29T08:09:31;0.80;;;0.70;;
4232;SDS011;2130;48.472;11.934;2022-12-29T08:12:00;0.97;;;0.80;;
4232;SDS011;2130;48.472;11.934;2022-12-29T08:17:48;1.53;;;0.70;;
4232;SDS011;2130;48.472;11.934;2022-12-29T08:20:18;1.73;;;0.80;;
4232;SDS011;2130;48.472;11.934;2022-12-29T08:22:48;3.50;;;1.00;;
4232;SDS011;2130;48.472;11.934;2022-12-29T08:25:16;1.10;;;0.80;;
4232;SDS011;2130;48.472;11.934;2022-12-29T08:27:46;0.90;;;0.70;;
4232;SDS011;2130;48.472;11.934;2022-12-29T08:30:14;0.90;;;0.70;;
4232;SDS011;2130;48.472;11.934;2022-12-29T08:32:43;0.83;;;0.70;;
4232;SDS011;2130;48.472;11.934;2022-12-29T08:35:12;0.97;;;0.73;;
4232;SDS011;2130;48.472;11.934;2022-12-29T08:37:44;3.13;;;0.80;;
4232;SDS011;2130;48.472;11.934;2022-12-29T08:40:12;0.70;;;0.60;;
4232;SDS011;2130;48.472;11.934;2022-12-29T08:42:41;1.40;;;0.90;;
4232;SDS011;2130;48.472;11.934;2022-12-29T08:45:10;0.90;;;0.70;;
4232;SDS011;2130;48.472;11.934;2022-12-29T08:47:38;1.00;;;0.80;;
4232;SDS011;2130;48.472;11.934;2022-12-29T08:50:07;0.83;;;0.80;;
4232;SDS011;2130;48.472;11.934;2022-12-29T08:52:35;1.43;;;0.77;;
4232;SDS011;2130;48.472;11.934;2022-12-29T08:55:06;0.97;;;0.80;;
4232;SDS011;2130;48.472;11.934;2022-12-29T08:57:35;1.00;;;0.70;;
4232;SDS011;2130;48.472;11.934;2022-12-29T09:00:12;0.73;;;0.60;;
4232;SDS011;2130;48.472;11.934;2022-12-29T09:02:42;1.00;;;0.80;;
4232;SDS011;2130;48.472;11.934;2022-12-29T09:05:11;0.80;;;0.73;;
4232;SDS011;2130;48.472;11.934;2022-12-29T09:07:40;1.00;;;0.77;;
4232;SDS011;2130;48.472;11.934;2022-12-29T09:10:10;1.07;;;0.80;;
4232;SDS011;2130;48.472;11.934;2022-12-29T09:12:38;3.03;;;0.80;;
4232;SDS011;2130;48.472;11.934;2022-12-29T09:15:07;1.17;;;0.80;;
4232;SDS011;2130;48.472;11.934;2022-12-29T09:20:31;2.00;;;1.27;;
4232;SDS011;2130;48.472;11.934;2022-12-29T09:23:00;1.23;;;0.90;;
4232;SDS011;2130;48.472;11.934;2022-12-29T09:25:31;1.70;;;0.77;;
4232;SDS011;2130;48.472;11.934;2022-12-29T09:27:59;3.03;;;0.87;;
4232;SDS011;2130;48.472;11.934;2022-12-29T09:30:30;1.80;;;1.20;;
4232;SDS011;2130;48.472;11.934;2022-12-29T09:32:59;1.20;;;0.90;;
4232;SDS011;2130;48.472;11.934;2022-12-29T09:35:28;0.87;;;0.70;;
4232;SDS011;2130;48.472;11.934;2022-12-29T09:37:56;1.30;;;1.10;;
4232;SDS011;2130;48.472;11.934;2022-12-29T09:40:26;0.93;;;0.83;;
4232;SDS011;2130;48.472;11.934;2022-12-29T09:43:14;0.80;;;0.70;;
4232;SDS011;2130;48.472;11.934;2022-12-29T09:45:52;0.80;;;0.70;;
4232;SDS011;2130;48.472;11.934;2022-12-29T09:48:23;0.80;;;0.70;;
4232;SDS011;2130;48.472;11.934;2022-12-29T09:50:56;0.70;;;0.70;;
4232;SDS011;2130;48.472;11.934;2022-12-29T09:53:27;0.80;;;0.80;;
4232;SDS011;2130;48.472;11.934;2022-12-29T09:55:59;0.93;;;0.70;;
4232;SDS011;2130;48.472;11.934;2022-12-29T09:58:30;0.70;;;0.60;;
4232;SDS011;2130;48.472;11.934;2022-12-29T10:03:57;0.70;;;0.70;;
4232;SDS011;2130;48.472;11.934;2022-12-29T10:06:27;0.97;;;0.73;;
4232;SDS011;2130;48.472;11.934;2022-12-29T10:09:22;0.87;;;0.67;;
4232;SDS011;2130;48.472;11.934;2022-12-29T10:12:01;0.80;;;0.70;;
4232;SDS011;2130;48.472;11.934;2022-12-29T10:14:42;0.70;;;0.70;;
4232;SDS011;2130;48.472;11.934;2022-12-29T10:17:25;1.47;;;0.80;;
4232;SDS011;2130;48.472;11.934;2022-12-29T10:20:02;1.83;;;0.80;;
4232;SDS011;2130;48.472;11.934;2022-12-29T10:22:44;0.73;;;0.60;;
4232;SDS011;2130;48.472;11.934;2022-12-29T10:25:22;0.80;;;0.60;;
4232;SDS011;2130;48.472;11.934;2022-12-29T10:27:58;0.97;;;0.80;;
4232;SDS011;2130;48.472;11.934;2022-12-29T10:30:28;3.43;;;0.93;;
4232;SDS011;2130;48.472;11.934;2022-12-29T10:32:58;1.57;;;0.87;;
4232;SDS011;2130;48.472;11.934;2022-12-29T10:35:29;0.70;;;0.70;;
4232;SDS011;2130;48.472;11.934;2022-12-29T10:38:01;1.03;;;0.77;;
4232;SDS011;2130;48.472;11.934;2022-12-29T10:40:33;0.80;;;0.70;;
4232;SDS011;2130;48.472;11.934;2022-12-29T10:43:12;0.70;;;0.70;;
4232;SDS011;2130;48.472;11.934;2022-12-29T10:45:51;0.80;;;0.67;;
4232;SDS011;2130;48.472;11.934;2022-12-29T10:48:21;0.70;;;0.70;;
4232;SDS011;2130;48.472;11.934;2022-12-29T10:50:57;1.03;;;0.70;;
4232;SDS011;2130;48.472;11.934;2022-12-29T10:53:30;0.87;;;0.70;;
4232;SDS011;2130;48.472;11.934;2022-12-29T10:56:02;0.90;;;0.63;;
4232;SDS011;2130;48.472;11.934;2022-12-29T10:58:33;0.70;;;0.70;;
4232;SDS011;2130;48.472;11.934;2022-12-29T11:01:02;1.67;;;0.90;;
4232;SDS011;2130;48.472;11.934;2022-12-29T11:03:37;0.80;;;0.70;;
4232;SDS011;2130;48.472;11.934;2022-12-29T11:06:13;1.13;;;0.77;;
4232;SDS011;2130;48.472;11.934;2022-12-29T11:08:46;0.70;;;0.60;;
4232;SDS011;2130;48.472;11.934;2022-12-29T11:11:22;0.77;;;0.70;;
4232;SDS011;2130;48.472;11.934;2022-12-29T11:13:56;1.60;;;0.80;;
4232;SDS011;2130;48.472;11.934;2022-12-29T11:16:30;3.10;;;0.80;;
4232;SDS011;2130;48.472;11.934;2022-12-29T11:19:01;1.03;;;0.80;;
4232;SDS011;2130;48.472;11.934;2022-12-29T11:21:31;0.77;;;0.70;;
4232;SDS011;2130;48.472;11.934;2022-12-29T11:24:01;0.90;;;0.80;;
4232;SDS011;2130;48.472;11.934;2022-12-29T11:26:30;1.00;;;0.77;;
4232;SDS011;2130;48.472;11.934;2022-12-29T11:29:15;1.00;;;0.90;;
4232;SDS011;2130;48.472;11.934;2022-12-29T11:31:49;0.90;;;0.70;;
4232;SDS011;2130;48.472;11.934;2022-12-29T11:34:19;0.67;;;0.60;;
4232;SDS011;2130;48.472;11.934;2022-12-29T11:36:50;0.70;;;0.70;;
4232;SDS011;2130;48.472;11.934;2022-12-29T11:42:05;1.10;;;0.60;;
4232;SDS011;2130;48.472;11.934;2022-12-29T11:44:37;1.20;;;0.67;;
4232;SDS011;2130;48.472;11.934;2022-12-29T11:47:13;0.80;;;0.60;;
4232;SDS011;2130;48.472;11.934;2022-12-29T11:49:49;0.90;;;0.70;;
4232;SDS011;2130;48.472;11.934;2022-12-29T11:52:20;1.13;;;0.67;;
4232;SDS011;2130;48.472;11.934;2022-12-29T11:54:50;0.70;;;0.70;;
4232;SDS011;2130;48.472;11.934;2022-12-29T11:57:19;0.70;;;0.60;;
4232;SDS011;2130;48.472;11.934;2022-12-29T11:59:50;0.77;;;0.60;;
4232;SDS011;2130;48.472;11.934;2022-12-29T12:02:40;1.17;;;0.70;;
4232;SDS011;2130;48.472;11.934;2022-12-29T12:05:24;0.80;;;0.80;;
4232;SDS011;2130;48.472;11.934;2022-12-29T12:07:59;0.93;;;0.70;;
4232;SDS011;2130;48.472;11.934;2022-12-29T12:10:31;0.80;;;0.60;;
4232;SDS011;2130;48.472;11.934;2022-12-29T12:13:07;0.90;;;0.70;;
4232;SDS011;2130;48.472;11.934;2022-12-29T12:15:40;0.70;;;0.60;;
4232;SDS011;2130;48.472;11.934;2022-12-29T12:18:21;3.03;;;0.80;;
4232;SDS011;2130;48.472;11.934;2022-12-29T12:21:04;0.83;;;0.60;;
4232;SDS011;2130;48.472;11.934;2022-12-29T12:23:39;0.70;;;0.60;;
4232;SDS011;2130;48.472;11.934;2022-12-29T12:26:12;0.70;;;0.70;;
4232;SDS011;2130;48.472;11.934;2022-12-29T12:28:48;1.30;;;0.77;;
4232;SDS011;2130;48.472;11.934;2022-12-29T12:31:26;0.63;;;0.63;;
4232;SDS011;2130;48.472;11.934;2022-12-29T12:34:01;0.70;;;0.67;;
4232;SDS011;2130;48.472;11.934;2022-12-29T12:36:43;0.97;;;0.77;;
4232;SDS011;2130;48.472;11.934;2022-12-29T12:39:25;1.93;;;0.73;;
4232;SDS011;2130;48.472;11.934;2022-12-29T12:41:57;0.90;;;0.67;;
4232;SDS011;2130;48.472;11.934;2022-12-29T12:44:36;0.90;;;0.70;;
4232;SDS011;2130;48.472;11.934;2022-12-29T12:47:13;0.87;;;0.70;;
4232;SDS011;2130;48.472;11.934;2022-12-29T12:49:58;0.73;;;0.67;;
4232;SDS011;2130;48.472;11.934;2022-12-29T12:52:33;1.13;;;0.80;;
4232;SDS011;2130;48.472;11.934;2022-12-29T12:55:22;1.33;;;0.73;;
4232;SDS011;2130;48.472;11.934;2022-12-29T12:58:03;6.03;;;0.80;;
4232;SDS011;2130;48.472;11.934;2022-12-29T13:00:39;0.83;;;0.73;;
4232;SDS011;2130;48.472;11.934;2022-12-29T13:03:12;0.80;;;0.70;;
4232;SDS011;2130;48.472;11.934;2022-12-29T13:05:50;2.03;;;0.90;;
4232;SDS011;2130;48.472;11.934;2022-12-29T13:08:30;0.70;;;0.60;;
4232;SDS011;2130;48.472;11.934;2022-12-29T13:11:11;1.03;;;0.70;;
4232;SDS011;2130;48.472;11.934;2022-12-29T13:13:49;0.77;;;0.77;;
4232;SDS011;2130;48.472;11.934;2022-12-29T13:16:26;1.40;;;0.70;;
4232;SDS011;2130;48.472;11.934;2022-12-29T13:18:58;1.23;;;0.70;;
4232;SDS011;2130;48.472;11.934;2022-12-29T13:21:37;1.40;;;1.00;;
4232;SDS011;2130;48.472;11.934;2022-12-29T13:24:24;2.60;;;0.80;;
4232;SDS011;2130;48.472;11.934;2022-12-29T13:26:56;0.77;;;0.77;;
4232;SDS011;2130;48.472;11.934;2022-12-29T13:29:31;1.30;;;0.67;;
4232;SDS011;2130;48.472;11.934;2022-12-29T13:32:10;0.60;;;0.60;;
4232;SDS011;2130;48.472;11.934;2022-12-29T13:34:53;2.27;;;0.80;;
4232;SDS011;2130;48.472;11.934;2022-12-29T13:37:32;1.30;;;0.80;;
4232;SDS011;2130;48.472;11.934;2022-12-29T13:40:04;0.70;;;0.70;;
4232;SDS011;2130;48.472;11.934;2022-12-29T13:42:38;0.60;;;0.60;;
4232;SDS011;2130;48.472;11.934;2022-12-29T13:45:10;0.60;;;0.60;;
4232;SDS011;2130;48.472;11.934;2022-12-29T13:47:42;0.90;;;0.67;;
4232;SDS011;2130;48.472;11.934;2022-12-29T13:50:14;0.90;;;0.70;;
4232;SDS011;2130;48.472;11.934;2022-12-29T13:52:48;1.10;;;1.00;;
4232;SDS011;2130;48.472;11.934;2022-12-29T13:55:22;1.00;;;0.80;;
4232;SDS011;2130;48.472;11.934;2022-12-29T13:57:54;1.33;;;0.80;;
4232;SDS011;2130;48.472;11.934;2022-12-29T14:00:29;1.93;;;0.87;;
4232;SDS011;2130;48.472;11.934;2022-12-29T14:03:10;0.80;;;0.80;;
4232;SDS011;2130;48.472;11.934;2022-12-29T14:06:02;3.73;;;1.10;;
4232;SDS011;2130;48.472;11.934;2022-12-29T14:08:34;1.07;;;0.90;;
4232;SDS011;2130;48.472;11.934;2022-12-29T14:11:05;1.83;;;0.80;;
4232;SDS011;2130;48.472;11.934;2022-12-29T14:13:37;2.90;;;1.00;;
4232;SDS011;2130;48.472;11.934;2022-12-29T14:16:07;0.80;;;0.70;;
4232;SDS011;2130;48.472;11.934;2022-12-29T14:18:41;0.90;;;0.80;;
4232;SDS011;2130;48.472;11.934;2022-12-29T14:21:11;1.27;;;0.77;;
4232;SDS011;2130;48.472;11.934;2022-12-29T14:23:47;1.30;;;0.83;;
4232;SDS011;2130;48.472;11.934;2022-12-29T14:26:18;1.93;;;0.90;;
4232;SDS011;2130;48.472;11.934;2022-12-29T14:38:15;2.43;;;1.33;;
4232;SDS011;2130;48.472;11.934;2022-12-29T14:40:46;1.27;;;1.00;;
4232;SDS011;2130;48.472;11.934;2022-12-29T14:43:19;1.60;;;1.13;;
4232;SDS011;2130;48.472;11.934;2022-12-29T14:45:52;1.00;;;0.90;;
4232;SDS011;2130;48.472;11.934;2022-12-29T14:48:28;3.70;;;0.90;;
4232;SDS011;2130;48.472;11.934;2022-12-29T14:51:00;1.93;;;0.70;;
4232;SDS011;2130;48.472;11.934;2022-12-29T14:53:42;1.03;;;0.70;;
4232;SDS011;2130;48.472;11.934;2022-12-29T14:56:14;0.87;;;0.80;;
4232;SDS011;2130;48.472;11.934;2022-12-29T14:58:47;1.93;;;0.90;;
4232;SDS011;2130;48.472;11.934;2022-12-29T15:01:19;0.90;;;0.70;;
4232;SDS011;2130;48.472;11.934;2022-12-29T15:03:51;1.20;;;0.70;;
4232;SDS011;2130;48.472;11.934;2022-12-29T15:06:21;0.70;;;0.60;;
4232;SDS011;2130;48.472;11.934;2022-12-29T15:08:53;0.60;;;0.50;;
4232;SDS011;2130;48.472;11.934;2022-12-29T15:11:27;1.17;;;0.60;;
4232;SDS011;2130;48.472;11.934;2022-12-29T15:17:08;0.70;;;0.70;;
4232;SDS011;2130;48.472;11.934;2022-12-29T15:19:38;0.70;;;0.70;;
4232;SDS011;2130;48.472;11.934;2022-12-29T15:22:07;0.73;;;0.73;;
4232;SDS011;2130;48.472;11.934;2022-12-29T15:24:40;1.50;;;1.10;;
4232;SDS011;2130;48.472;11.934;2022-12-29T15:27:11;2.30;;;1.00;;
4232;SDS011;2130;48.472;11.934;2022-12-29T15:29:42;1.40;;;1.10;;
4232;SDS011;2130;48.472;11.934;2022-12-29T15:32:20;1.20;;;1.10;;
4232;SDS011;2130;48.472;11.934;2022-12-29T15:34:51;3.53;;;1.30;;
4232;SDS011;2130;48.472;11.934;2022-12-29T15:37:21;1.20;;;1.00;;
4232;SDS011;2130;48.472;11.934;2022-12-29T15:39:51;1.03;;;0.87;;
4232;SDS011;2130;48.472;11.934;2022-12-29T15:42:25;2.40;;;1.50;;
4232;SDS011;2130;48.472;11.934;2022-12-29T15:44:59;1.13;;;1.03;;
4232;SDS011;2130;48.472;11.934;2022-12-29T15:47:37;1.53;;;1.00;;
4232;SDS011;2130;48.472;11.934;2022-12-29T15:50:06;0.90;;;0.90;;
4232;SDS011;2130;48.472;11.934;2022-12-29T15:52:49;0.90;;;0.73;;
4232;SDS011;2130;48.472;11.934;2022-12-29T15:55:19;0.80;;;0.73;;
4232;SDS011;2130;48.472;11.934;2022-12-29T15:57:56;1.23;;;0.93;;
4232;SDS011;2130;48.472;11.934;2022-12-29T16:00:26;0.90;;;0.80;;
4232;SDS011;2130;48.472;11.934;2022-12-29T16:02:57;0.80;;;0.80;;
4232;SDS011;2130;48.472;11.934;2022-12-29T16:05:31;0.80;;;0.70;;
4232;SDS011;2130;48.472;11.934;2022-12-29T16:08:01;1.20;;;0.73;;
4232;SDS011;2130;48.472;11.934;2022-12-29T16:10:30;1.00;;;0.90;;
4232;SDS011;2130;48.472;11.934;2022-12-29T16:13:02;1.13;;;0.80;;
4232;SDS011;2130;48.472;11.934;2022-12-29T16:15:32;1.73;;;1.00;;
4232;SDS011;2130;48.472;11.934;2022-12-29T16:18:00;1.00;;;0.90;;
4232;SDS011;2130;48.472;11.934;2022-12-29T16:20:32;1.57;;;1.00;;